Time;durP1;ratioP1;P1;durP2;ratioP2;P2;SDS_P1;SDS_P2;PMS_P1;PMS_P2;Temp;Humidity;BMP_temperature;BMP_pressure;BME280_temperature;BME280_humidity;BME280_pressure;Samples;Min_cycle;Max_cycle;Signal;HPM_P1;HPM_P2
2024/03/03 00:00:47;;;;;;;2.17;1.42;;;10.90;99.90;;;;;;4979458;28;20493;-77
2024/03/03 00:03:14;;;;;;;3.20;1.80;;;10.90;99.90;;;;;;5023707;28;20029;-76
2024/03/03 00:05:40;;;;;;;4.75;1.83;;;10.90;99.90;;;;;;4990417;28;20029;-76
2024/03/03 00:08:07;;;;;;;2.95;2.15;;;10.90;99.90;;;;;;4960800;28;20049;-76
2024/03/03 00:10:33;;;;;;;2.33;1.30;;;10.90;99.90;;;;;;4976814;28;20444;-76
2024/03/03 00:13:00;;;;;;;2.45;1.45;;;10.90;99.90;;;;;;4975721;28;20040;-76
2024/03/03 00:15:26;;;;;;;2.58;1.23;;;10.80;99.90;;;;;;4981676;28;20455;-76
2024/03/03 00:17:52;;;;;;;2.65;1.92;;;10.90;99.90;;;;;;4980561;28;20049;-76
2024/03/03 00:20:19;;;;;;;3.42;1.80;;;10.90;99.90;;;;;;4975983;28;20029;-76
2024/03/03 00:22:45;;;;;;;3.63;1.80;;;10.90;99.90;;;;;;4977244;28;20420;-76
2024/03/03 00:25:12;;;;;;;3.83;1.73;;;10.90;99.90;;;;;;4992211;28;20041;-76
2024/03/03 00:27:38;;;;;;;2.67;1.40;;;10.90;99.90;;;;;;4959543;28;20036;-76
2024/03/03 00:30:05;;;;;;;2.83;1.50;;;10.90;99.90;;;;;;5009417;28;20456;-76
2024/03/03 00:32:31;;;;;;;3.80;1.92;;;10.90;99.90;;;;;;4965339;28;20029;-77
2024/03/03 00:34:58;;;;;;;3.78;2.20;;;10.90;99.90;;;;;;5033266;28;20040;-77
2024/03/03 00:37:24;;;;;;;2.97;1.92;;;10.90;99.90;;;;;;4979533;28;20041;-77
2024/03/03 00:39:51;;;;;;;3.30;1.67;;;10.90;99.90;;;;;;4978501;28;20135;-77
2024/03/03 00:42:17;;;;;;;3.63;1.65;;;10.80;99.90;;;;;;4972938;28;20522;-76
2024/03/03 00:44:44;;;;;;;2.83;1.60;;;10.70;99.90;;;;;;4975907;28;20044;-76
2024/03/03 00:47:10;;;;;;;2.60;1.40;;;10.60;99.90;;;;;;4976625;28;20345;-76
2024/03/03 00:49:37;;;;;;;2.42;1.77;;;10.50;99.90;;;;;;4996653;28;20482;-78
2024/03/03 00:52:03;;;;;;;3.47;1.63;;;10.40;99.90;;;;;;4981903;28;20041;-77
2024/03/03 00:54:30;;;;;;;3.50;2.13;;;10.30;99.90;;;;;;4978692;28;20037;-77
2024/03/03 00:56:56;;;;;;;3.65;2.10;;;10.30;99.90;;;;;;4976150;28;20459;-77
2024/03/03 00:59:26;;;;;;;4.50;1.98;;;10.20;99.90;;;;;;4992033;28;20041;-77
2024/03/03 01:01:52;;;;;;;5.13;2.80;;;10.20;99.90;;;;;;4971274;28;20132;-75
2024/03/03 01:04:19;;;;;;;3.65;2.20;;;10.20;99.90;;;;;;4991928;28;20030;-77
2024/03/03 01:06:45;;;;;;;2.70;2.33;;;10.20;99.90;;;;;;4993897;28;20026;-76
2024/03/03 01:09:11;;;;;;;3.70;2.10;;;10.30;99.90;;;;;;4998851;28;22797;-75
2024/03/03 01:11:38;;;;;;;3.40;2.20;;;10.30;99.90;;;;;;4961993;28;20053;-75
2024/03/03 01:14:05;;;;;;;3.92;2.33;;;10.30;99.90;;;;;;4978462;28;20774;-75
2024/03/03 01:16:32;;;;;;;4.05;2.30;;;10.20;99.90;;;;;;4992837;28;20048;-76
2024/03/03 01:18:58;;;;;;;3.38;2.30;;;10.30;99.90;;;;;;4993762;28;22479;-76
2024/03/03 01:21:24;;;;;;;4.78;2.40;;;10.30;99.90;;;;;;5021247;28;20047;-77
2024/03/03 01:23:51;;;;;;;3.97;3.10;;;10.30;99.90;;;;;;4977554;28;20040;-77
2024/03/03 01:26:17;;;;;;;4.75;3.28;;;10.30;99.90;;;;;;4997647;28;20028;-77
2024/03/03 01:28:43;;;;;;;5.05;2.78;;;10.40;99.90;;;;;;4997737;28;20041;-77
2024/03/03 01:31:12;;;;;;;4.43;3.05;;;10.40;99.90;;;;;;4989067;28;20041;-77
2024/03/03 01:33:39;;;;;;;4.97;3.10;;;10.40;99.90;;;;;;4976672;28;20029;-77
2024/03/03 01:36:05;;;;;;;4.18;2.95;;;10.40;99.90;;;;;;4992100;28;20033;-77
2024/03/03 01:38:32;;;;;;;4.20;3.05;;;10.50;99.90;;;;;;4992609;28;20052;-77
2024/03/03 01:40:58;;;;;;;4.75;3.30;;;10.50;99.90;;;;;;4989767;28;20055;-77
2024/03/03 01:43:24;;;;;;;4.78;3.35;;;10.50;99.90;;;;;;4992927;28;20044;-78
2024/03/03 01:45:51;;;;;;;5.18;2.88;;;10.50;99.90;;;;;;4994889;28;20486;-77
2024/03/03 01:48:18;;;;;;;5.97;3.33;;;10.50;99.90;;;;;;4979120;28;20029;-77
2024/03/03 01:50:45;;;;;;;5.90;3.10;;;10.60;99.90;;;;;;4988394;28;22350;-77
2024/03/03 01:53:13;;;;;;;5.53;3.42;;;10.60;99.90;;;;;;4990983;28;20033;-77
2024/03/03 01:55:40;;;;;;;4.00;2.90;;;10.60;99.90;;;;;;4974804;28;20060;-77
2024/03/03 01:58:08;;;;;;;5.18;3.40;;;10.60;99.90;;;;;;4976172;28;20483;-77
2024/03/03 02:00:35;;;;;;;5.38;3.53;;;10.50;99.90;;;;;;4965220;28;20041;-78
2024/03/03 02:03:08;;;;;;;5.68;2.70;;;10.50;99.90;;;;;;4980568;28;20378;-77
2024/03/03 02:05:37;;;;;;;4.10;2.83;;;10.40;99.90;;;;;;4960265;28;20886;-77
2024/03/03 02:08:05;;;;;;;4.63;3.05;;;10.30;99.90;;;;;;5025497;28;20504;-77
2024/03/03 02:10:32;;;;;;;4.47;3.25;;;10.20;99.90;;;;;;4975882;28;20056;-77
2024/03/03 02:12:59;;;;;;;4.22;2.75;;;10.20;99.90;;;;;;4974351;28;20041;-77
2024/03/03 02:15:26;;;;;;;3.72;2.42;;;10.10;99.90;;;;;;4994234;28;20029;-77
2024/03/03 02:17:54;;;;;;;3.97;2.80;;;10.00;99.90;;;;;;4999770;28;20034;-77
2024/03/03 02:20:20;;;;;;;4.43;2.80;;;10.00;99.90;;;;;;4996561;28;20037;-77
2024/03/03 02:22:47;;;;;;;4.43;3.10;;;10.00;99.90;;;;;;4989743;28;20024;-77
2024/03/03 02:25:14;;;;;;;5.05;3.30;;;9.90;99.90;;;;;;4972272;28;20034;-77
2024/03/03 02:27:41;;;;;;;4.22;2.83;;;9.90;99.90;;;;;;4969601;28;20345;-77
2024/03/03 02:30:08;;;;;;;3.15;2.80;;;9.90;99.90;;;;;;4989777;28;20042;-77
2024/03/03 02:32:35;;;;;;;3.80;2.75;;;9.90;99.90;;;;;;5005045;28;21434;-77
2024/03/03 02:35:02;;;;;;;5.63;3.13;;;9.80;99.90;;;;;;4995903;28;20032;-77
2024/03/03 02:37:28;;;;;;;3.60;2.50;;;9.70;99.90;;;;;;4998704;28;20720;-76
2024/03/03 02:39:55;;;;;;;4.30;2.53;;;9.70;99.90;;;;;;4965772;28;20033;-77
2024/03/03 02:42:21;;;;;;;3.80;2.58;;;9.60;99.90;;;;;;4974399;28;20396;-76
2024/03/03 02:44:47;;;;;;;3.08;2.38;;;9.50;99.90;;;;;;4975259;28;20442;-76
2024/03/03 02:47:14;;;;;;;3.85;2.10;;;9.40;99.90;;;;;;5004687;28;20029;-77
2024/03/03 02:49:40;;;;;;;3.88;2.45;;;9.40;99.90;;;;;;4989825;28;20037;-76
2024/03/03 02:52:07;;;;;;;3.80;3.00;;;9.40;99.90;;;;;;4988128;28;20048;-77
2024/03/03 02:54:33;;;;;;;3.50;2.28;;;9.30;99.90;;;;;;4995645;28;20041;-78
2024/03/03 02:56:59;;;;;;;5.05;2.83;;;9.30;99.90;;;;;;4994996;28;21092;-77
2024/03/03 02:59:26;;;;;;;4.32;2.78;;;9.30;99.90;;;;;;4957484;28;20060;-77
2024/03/03 03:01:52;;;;;;;4.43;2.88;;;9.20;99.90;;;;;;4953412;28;20044;-77
2024/03/03 03:04:18;;;;;;;3.58;2.42;;;9.20;99.90;;;;;;4972786;28;20923;-77
2024/03/03 03:06:45;;;;;;;3.80;2.55;;;9.10;99.90;;;;;;4986075;28;20737;-76
2024/03/03 03:09:12;;;;;;;2.72;2.30;;;9.10;99.90;;;;;;4974101;28;20041;-76
2024/03/03 03:11:38;;;;;;;3.45;2.45;;;9.00;99.90;;;;;;4979957;28;20956;-76
2024/03/03 03:14:05;;;;;;;2.38;1.65;;;8.90;99.90;;;;;;4978182;28;20030;-76
2024/03/03 03:16:32;;;;;;;2.97;2.28;;;8.80;99.90;;;;;;4990870;28;20298;-76
2024/03/03 03:18:58;;;;;;;3.78;2.85;;;8.80;99.90;;;;;;4974336;28;20067;-76
2024/03/03 03:21:28;;;;;;;3.70;2.80;;;8.70;99.90;;;;;;4970903;28;20042;-76
2024/03/03 03:23:54;;;;;;;3.97;2.45;;;8.70;99.90;;;;;;5022358;28;20034;-76
2024/03/03 03:26:20;;;;;;;3.70;2.28;;;8.70;99.90;;;;;;4992642;28;20037;-76
2024/03/03 03:28:47;;;;;;;4.90;2.45;;;8.60;99.90;;;;;;4962950;28;20049;-76
2024/03/03 03:31:13;;;;;;;4.97;2.70;;;8.60;99.90;;;;;;4992668;28;20044;-76
2024/03/03 03:33:39;;;;;;;4.15;2.38;;;8.60;99.90;;;;;;4975300;28;20029;-76
2024/03/03 03:36:10;;;;;;;3.22;2.42;;;8.50;99.90;;;;;;4990714;28;20751;-76
2024/03/03 03:38:37;;;;;;;4.00;2.55;;;8.60;99.90;;;;;;4990477;28;20037;-76
2024/03/03 03:41:04;;;;;;;6.70;3.90;;;8.50;99.90;;;;;;4972176;28;20034;-77
2024/03/03 03:43:30;;;;;;;4.07;3.08;;;8.50;99.90;;;;;;4992994;28;20042;-76
2024/03/03 03:45:57;;;;;;;3.70;3.08;;;8.50;99.90;;;;;;4982098;28;20029;-77
2024/03/03 03:48:24;;;;;;;3.55;2.60;;;8.50;99.90;;;;;;4979719;28;20318;-76
2024/03/03 03:50:51;;;;;;;5.05;3.50;;;8.50;99.90;;;;;;4989141;28;20050;-76
2024/03/03 03:53:17;;;;;;;5.70;2.95;;;8.50;99.90;;;;;;4988675;28;20480;-76
2024/03/03 03:55:43;;;;;;;4.43;2.88;;;8.60;99.90;;;;;;4991656;28;20042;-77
2024/03/03 03:58:10;;;;;;;3.40;2.30;;;8.60;99.90;;;;;;4973178;28;20048;-76
2024/03/03 04:00:36;;;;;;;4.10;2.70;;;8.60;99.90;;;;;;5021871;28;20044;-77
2024/03/03 04:03:03;;;;;;;4.30;2.40;;;8.60;99.90;;;;;;4995567;28;20053;-76
2024/03/03 04:05:29;;;;;;;3.50;2.65;;;8.60;99.90;;;;;;4981160;28;20369;-76
2024/03/03 04:07:56;;;;;;;3.88;2.25;;;8.60;99.90;;;;;;4972719;28;21150;-77
2024/03/03 04:10:22;;;;;;;3.97;2.30;;;8.60;99.90;;;;;;4990327;28;20042;-76
2024/03/03 04:12:49;;;;;;;4.90;2.75;;;8.70;99.90;;;;;;4988514;28;20029;-76
2024/03/03 04:15:16;;;;;;;4.40;2.60;;;8.70;99.90;;;;;;4989357;28;20033;-76
2024/03/03 04:17:43;;;;;;;5.60;3.97;;;8.70;99.90;;;;;;4979138;28;20029;-77
2024/03/03 04:20:10;;;;;;;5.80;4.25;;;8.70;99.90;;;;;;4982007;28;20568;-76
2024/03/03 04:22:36;;;;;;;6.25;3.78;;;8.70;99.90;;;;;;4976040;28;20540;-77
2024/03/03 04:25:04;;;;;;;5.03;3.65;;;8.70;99.90;;;;;;4975147;28;20037;-76
2024/03/03 04:27:31;;;;;;;5.13;3.90;;;8.70;99.90;;;;;;5006918;28;20049;-77
2024/03/03 04:29:57;;;;;;;4.20;3.35;;;8.70;99.90;;;;;;4973708;28;20481;-76
2024/03/03 04:32:24;;;;;;;4.70;3.63;;;8.70;99.90;;;;;;4970401;28;20705;-76
2024/03/03 04:34:50;;;;;;;5.50;4.00;;;8.70;99.90;;;;;;5012978;28;21462;-76
2024/03/03 04:37:16;;;;;;;6.85;4.30;;;8.70;99.90;;;;;;4981717;28;20033;-76
2024/03/03 04:39:43;;;;;;;5.63;3.58;;;8.70;99.90;;;;;;4958679;28;20033;-76
2024/03/03 04:42:09;;;;;;;4.60;3.22;;;8.70;99.90;;;;;;4975873;28;20041;-76
2024/03/03 04:44:36;;;;;;;6.20;3.70;;;8.60;99.90;;;;;;4994074;28;20037;-75
2024/03/03 04:47:03;;;;;;;4.55;3.55;;;8.60;99.90;;;;;;4990980;28;20025;-75
2024/03/03 04:49:30;;;;;;;5.07;2.97;;;8.60;99.90;;;;;;4999004;28;20041;-75
2024/03/03 04:51:56;;;;;;;4.75;3.60;;;8.50;99.90;;;;;;5000688;28;20039;-74
2024/03/03 04:54:23;;;;;;;6.25;4.15;;;8.50;99.90;;;;;;4994582;28;20044;-75
2024/03/03 04:56:49;;;;;;;6.38;3.97;;;8.50;99.90;;;;;;4973767;28;20053;-75
2024/03/03 04:59:15;;;;;;;5.95;3.80;;;8.50;99.90;;;;;;4990901;28;20384;-74
2024/03/03 05:01:42;;;;;;;3.92;2.80;;;8.60;99.90;;;;;;4960406;28;20041;-75
2024/03/03 05:04:09;;;;;;;4.28;3.40;;;8.60;99.90;;;;;;4992290;28;20380;-75
2024/03/03 05:06:43;;;;;;;4.32;2.53;;;8.60;99.90;;;;;;4999586;28;20434;-76
2024/03/03 05:09:09;;;;;;;4.63;3.08;;;8.70;99.90;;;;;;4996722;28;20053;-75
2024/03/03 05:11:36;;;;;;;4.80;3.13;;;8.70;99.90;;;;;;4969096;28;20477;-75
2024/03/03 05:14:03;;;;;;;3.67;2.60;;;8.60;99.90;;;;;;4953965;28;20362;-75
2024/03/03 05:16:30;;;;;;;3.60;2.60;;;8.70;99.90;;;;;;4958061;28;20040;-75
2024/03/03 05:18:56;;;;;;;6.55;3.78;;;8.70;99.90;;;;;;4994412;28;20507;-75
2024/03/03 05:21:22;;;;;;;4.75;2.72;;;8.70;99.90;;;;;;4976167;28;20030;-75
2024/03/03 05:23:49;;;;;;;4.93;2.97;;;8.70;99.90;;;;;;4981430;28;20060;-75
2024/03/03 05:26:18;;;;;;;5.68;3.47;;;8.70;99.90;;;;;;4999084;28;20044;-75
2024/03/03 05:28:49;;;;;;;4.28;2.80;;;8.70;99.90;;;;;;4960666;28;20217;-75
2024/03/03 05:31:15;;;;;;;4.68;3.45;;;8.60;99.90;;;;;;4955035;28;20033;-75
2024/03/03 05:33:41;;;;;;;5.82;3.38;;;8.60;99.90;;;;;;4955655;28;20802;-75
2024/03/03 05:36:08;;;;;;;5.18;3.53;;;8.60;99.90;;;;;;4971883;28;20041;-76
2024/03/03 05:38:34;;;;;;;6.97;4.10;;;8.60;99.90;;;;;;4975684;28;20037;-76
2024/03/03 05:41:00;;;;;;;5.32;3.40;;;8.60;99.90;;;;;;4982939;28;20037;-76
2024/03/03 05:43:27;;;;;;;4.00;3.15;;;8.60;99.90;;;;;;4998232;28;20064;-75
2024/03/03 05:45:54;;;;;;;5.95;3.42;;;8.60;99.90;;;;;;4971779;28;20673;-75
2024/03/03 05:48:20;;;;;;;5.60;3.35;;;8.50;99.90;;;;;;4988079;28;21056;-75
2024/03/03 05:50:46;;;;;;;4.75;3.67;;;8.60;99.90;;;;;;4969362;28;20064;-77
2024/03/03 05:53:13;;;;;;;6.10;4.40;;;8.50;99.90;;;;;;4988379;28;20037;-75
2024/03/03 05:55:40;;;;;;;5.93;3.80;;;8.50;99.90;;;;;;4980621;28;20017;-75
2024/03/03 05:58:06;;;;;;;6.07;3.88;;;8.50;99.90;;;;;;5011982;28;20056;-75
2024/03/03 06:00:32;;;;;;;7.03;4.80;;;8.50;99.90;;;;;;4991986;28;20405;-75
2024/03/03 06:02:59;;;;;;;7.10;4.00;;;8.50;99.90;;;;;;4959089;28;20041;-75
2024/03/03 06:05:25;;;;;;;5.20;3.60;;;8.50;99.90;;;;;;4973243;28;20048;-75
2024/03/03 06:07:51;;;;;;;4.45;3.08;;;8.50;99.90;;;;;;4989967;28;20038;-75
2024/03/03 06:10:18;;;;;;;4.78;3.70;;;8.40;99.90;;;;;;4969187;28;20068;-74
2024/03/03 06:12:45;;;;;;;7.90;5.13;;;8.50;99.90;;;;;;4977535;28;21001;-75
2024/03/03 06:15:11;;;;;;;4.95;3.63;;;8.50;99.90;;;;;;4995988;28;20060;-76
2024/03/03 06:17:38;;;;;;;6.47;4.18;;;8.60;99.90;;;;;;4972590;28;20041;-75
2024/03/03 06:20:06;;;;;;;6.18;4.25;;;8.60;99.90;;;;;;4989948;28;20041;-76
2024/03/03 06:22:33;;;;;;;6.13;4.32;;;8.60;99.90;;;;;;4986621;28;22050;-75
2024/03/03 06:24:59;;;;;;;4.38;3.38;;;8.60;99.90;;;;;;4955642;28;20628;-76
2024/03/03 06:27:26;;;;;;;5.18;3.80;;;8.60;99.90;;;;;;4993228;28;20686;-76
2024/03/03 06:29:53;;;;;;;5.35;3.22;;;8.60;99.90;;;;;;5031341;28;20513;-77
2024/03/03 06:32:19;;;;;;;3.58;2.80;;;8.70;99.90;;;;;;5006154;28;20029;-76
2024/03/03 06:34:48;;;;;;;5.47;3.40;;;8.70;99.90;;;;;;4987909;28;20029;-77
2024/03/03 06:37:15;;;;;;;5.80;3.50;;;8.80;99.90;;;;;;5004132;28;20044;-77
2024/03/03 06:39:43;;;;;;;8.25;5.43;;;8.80;99.90;;;;;;4988958;28;20539;-77
2024/03/03 06:42:10;;;;;;;7.07;4.50;;;8.80;99.90;;;;;;4954657;28;20625;-77
2024/03/03 06:44:41;;;;;;;6.55;4.32;;;8.80;99.90;;;;;;4976187;28;20040;-77
2024/03/03 06:47:07;;;;;;;7.38;4.50;;;8.80;99.90;;;;;;4996395;28;20044;-76
2024/03/03 06:49:33;;;;;;;5.57;4.28;;;8.80;99.90;;;;;;4989980;28;20045;-77
2024/03/03 06:52:00;;;;;;;7.43;4.63;;;8.90;99.90;;;;;;4972640;28;20542;-78
2024/03/03 06:54:26;;;;;;;6.05;4.13;;;8.90;99.90;;;;;;4991110;28;20021;-77
2024/03/03 06:56:53;;;;;;;7.18;4.75;;;8.90;99.90;;;;;;4985588;28;20374;-78
2024/03/03 06:59:19;;;;;;;5.07;4.05;;;9.00;99.90;;;;;;4989624;28;20469;-79
2024/03/03 07:01:46;;;;;;;5.53;4.15;;;9.00;99.90;;;;;;4980131;28;20044;-78
2024/03/03 07:04:24;;;;;;;4.82;3.60;;;9.00;99.90;;;;;;4979565;28;20040;-78
2024/03/03 07:06:51;;;;;;;7.75;4.05;;;9.10;99.90;;;;;;4969025;28;20381;-77
2024/03/03 07:09:23;;;;;;;5.22;3.88;;;9.10;99.90;;;;;;5001085;28;20033;-78
2024/03/03 07:11:54;;;;;;;6.70;4.78;;;9.20;99.90;;;;;;5018813;28;20033;-77
2024/03/03 07:14:21;;;;;;;9.50;5.13;;;9.20;99.90;;;;;;4955773;28;20033;-77
2024/03/03 07:16:49;;;;;;;8.23;5.03;;;9.30;99.90;;;;;;4994416;28;20516;-78
2024/03/03 07:19:15;;;;;;;6.70;4.97;;;9.30;99.90;;;;;;4997390;28;20025;-77
2024/03/03 07:21:43;;;;;;;6.22;4.80;;;9.30;99.90;;;;;;4975191;28;20029;-77
2024/03/03 07:24:10;;;;;;;4.80;3.92;;;9.40;99.90;;;;;;4989548;28;20038;-77
2024/03/03 07:26:36;;;;;;;6.20;4.43;;;9.40;99.90;;;;;;4970588;28;20041;-77
2024/03/03 07:29:03;;;;;;;6.38;4.32;;;9.40;99.90;;;;;;4970646;28;20444;-77
2024/03/03 07:31:30;;;;;;;6.63;4.72;;;9.40;99.90;;;;;;4971959;28;20512;-77
2024/03/03 07:33:57;;;;;;;10.48;6.63;;;9.30;99.90;;;;;;4963065;28;20042;-77
2024/03/03 07:36:24;;;;;;;8.45;6.30;;;9.40;99.90;;;;;;4980616;28;20041;-77
2024/03/03 07:38:50;;;;;;;7.63;5.38;;;9.30;99.90;;;;;;4971982;28;20503;-77
2024/03/03 07:41:16;;;;;;;6.60;5.60;;;9.30;99.90;;;;;;4987716;28;20052;-77
2024/03/03 07:43:43;;;;;;;7.32;5.57;;;9.40;99.90;;;;;;4984377;28;21218;-77
2024/03/03 07:46:11;;;;;;;8.80;6.43;;;9.40;99.90;;;;;;4988281;28;20499;-77
2024/03/03 07:48:38;;;;;;;8.02;5.90;;;9.40;99.90;;;;;;4988037;28;20038;-77
2024/03/03 07:51:06;;;;;;;9.10;6.55;;;9.40;99.90;;;;;;4979477;28;20444;-77
2024/03/03 07:53:33;;;;;;;7.75;4.72;;;9.50;99.90;;;;;;4964988;28;20038;-77
2024/03/03 07:56:02;;;;;;;7.38;4.65;;;9.50;99.90;;;;;;4974271;28;21034;-78
2024/03/03 07:58:30;;;;;;;6.13;3.63;;;9.60;99.90;;;;;;4969328;28;20659;-77
2024/03/03 08:00:59;;;;;;;6.18;4.63;;;9.60;99.90;;;;;;4970184;28;20491;-78
2024/03/03 08:03:25;;;;;;;5.07;3.25;;;9.60;99.90;;;;;;4971975;28;20547;-78
2024/03/03 08:05:51;;;;;;;9.27;5.78;;;9.70;99.90;;;;;;4987649;28;20038;-77
2024/03/03 08:08:18;;;;;;;8.70;5.57;;;9.70;99.90;;;;;;4957659;28;20045;-75
2024/03/03 08:10:44;;;;;;;10.20;6.93;;;9.80;99.90;;;;;;4993189;28;20040;-75
2024/03/03 08:13:11;;;;;;;11.68;5.90;;;9.90;99.90;;;;;;4956329;28;20052;-76
2024/03/03 08:15:37;;;;;;;7.78;5.55;;;10.00;99.90;;;;;;4971135;28;20037;-76
2024/03/03 08:18:04;;;;;;;6.82;5.30;;;10.10;99.90;;;;;;4993440;28;20029;-76
2024/03/03 08:20:30;;;;;;;9.73;5.57;;;10.20;99.90;;;;;;4988918;28;20037;-76
2024/03/03 08:22:57;;;;;;;6.72;5.45;;;10.30;99.90;;;;;;4991870;28;20044;-76
2024/03/03 08:25:24;;;;;;;6.28;4.75;;;10.40;99.90;;;;;;5001375;28;20038;-76
2024/03/03 08:27:50;;;;;;;7.45;4.97;;;10.40;99.90;;;;;;5032603;28;20465;-75
2024/03/03 08:30:17;;;;;;;7.82;5.65;;;10.50;99.90;;;;;;4993784;28;20428;-76
2024/03/03 08:32:43;;;;;;;7.93;5.15;;;10.60;99.90;;;;;;5005290;28;20483;-75
2024/03/03 08:35:11;;;;;;;7.38;5.85;;;10.70;99.90;;;;;;4974861;28;20433;-78
2024/03/03 08:37:37;;;;;;;5.32;4.20;;;10.90;99.90;;;;;;4991099;28;20060;-75
2024/03/03 08:40:04;;;;;;;8.75;6.18;;;11.00;99.90;;;;;;4977812;28;20493;-75
2024/03/03 08:42:31;;;;;;;9.65;6.65;;;11.10;99.90;;;;;;4981649;28;20048;-76
2024/03/03 08:44:58;;;;;;;10.77;6.95;;;11.10;99.90;;;;;;4996297;28;20386;-76
2024/03/03 08:47:24;;;;;;;8.30;5.85;;;11.20;99.90;;;;;;4973665;28;20045;-75
2024/03/03 08:49:51;;;;;;;10.50;6.45;;;11.30;99.90;;;;;;4976846;28;22685;-76
2024/03/03 08:52:17;;;;;;;7.38;5.22;;;11.40;99.90;;;;;;4989194;28;21154;-75
2024/03/03 08:54:44;;;;;;;9.55;6.22;;;11.50;99.90;;;;;;5022374;28;20037;-76
2024/03/03 08:57:10;;;;;;;7.68;6.53;;;11.60;99.90;;;;;;4977162;28;20037;-76
2024/03/03 08:59:36;;;;;;;9.80;6.53;;;11.60;99.90;;;;;;4969351;28;20496;-76
2024/03/03 09:02:03;;;;;;;8.38;6.93;;;11.60;99.90;;;;;;4983395;28;20602;-75
2024/03/03 09:04:37;;;;;;;9.40;6.15;;;11.60;99.90;;;;;;4956710;28;20056;-76
2024/03/03 09:07:07;;;;;;;11.95;7.53;;;11.60;99.90;;;;;;4991185;28;20500;-75
2024/03/03 09:09:35;;;;;;;9.05;6.93;;;11.60;99.90;;;;;;4974822;28;20045;-75
2024/03/03 09:12:02;;;;;;;12.05;7.90;;;11.70;99.90;;;;;;4973676;28;20044;-76
2024/03/03 09:14:28;;;;;;;10.00;7.18;;;11.70;99.90;;;;;;4975859;28;20037;-76
2024/03/03 09:16:55;;;;;;;9.70;6.65;;;11.70;99.90;;;;;;4998123;28;20494;-75
2024/03/03 09:19:21;;;;;;;7.68;6.03;;;11.80;99.90;;;;;;4980793;28;20048;-75
2024/03/03 09:21:47;;;;;;;8.65;6.28;;;11.80;99.90;;;;;;4972904;28;20041;-76
2024/03/03 09:24:14;;;;;;;8.23;5.88;;;11.90;99.90;;;;;;4972370;28;20507;-75
2024/03/03 09:26:40;;;;;;;9.77;6.88;;;11.90;99.90;;;;;;4988552;28;22637;-76
2024/03/03 09:29:07;;;;;;;12.55;6.85;;;12.00;99.90;;;;;;4989817;28;20374;-76
2024/03/03 09:31:33;;;;;;;8.52;6.10;;;12.10;99.90;;;;;;4994292;28;20458;-75
2024/03/03 09:34:00;;;;;;;9.30;6.63;;;12.20;99.90;;;;;;5002137;28;20442;-75
2024/03/03 09:36:26;;;;;;;10.35;6.50;;;12.40;99.90;;;;;;4976186;28;20041;-75
2024/03/03 09:38:52;;;;;;;9.20;6.80;;;12.50;99.90;;;;;;4987417;28;20041;-76
2024/03/03 09:41:19;;;;;;;9.90;6.75;;;12.60;99.90;;;;;;4971606;28;20036;-76
2024/03/03 09:43:52;;;;;;;9.43;6.93;;;12.90;99.90;;;;;;4970891;28;20722;-76
2024/03/03 09:46:22;;;;;;;9.80;6.65;;;13.00;99.90;;;;;;4957518;28;20034;-75
2024/03/03 09:48:50;;;;;;;8.90;6.78;;;13.20;99.90;;;;;;4992799;28;20041;-76
2024/03/03 09:51:17;;;;;;;9.23;7.05;;;13.20;99.90;;;;;;4996379;28;20042;-75
2024/03/03 09:53:44;;;;;;;8.10;6.47;;;13.20;99.90;;;;;;4987379;28;20550;-76
2024/03/03 09:56:12;;;;;;;8.88;6.68;;;13.20;99.90;;;;;;4971258;28;20041;-75
2024/03/03 09:58:38;;;;;;;9.10;6.00;;;13.10;99.90;;;;;;4987373;28;20041;-76
2024/03/03 10:01:08;;;;;;;9.77;7.53;;;13.10;99.90;;;;;;5021062;28;20048;-75
2024/03/03 10:03:36;;;;;;;8.45;6.15;;;13.00;99.90;;;;;;4976031;28;20033;-76
2024/03/03 10:06:07;;;;;;;8.38;6.25;;;13.00;99.90;;;;;;5002647;28;20040;-76
2024/03/03 10:08:35;;;;;;;7.80;5.90;;;13.10;99.90;;;;;;4977341;28;20044;-76
2024/03/03 10:11:07;;;;;;;8.38;6.80;;;13.20;99.90;;;;;;4953827;28;20064;-75
2024/03/03 10:13:33;;;;;;;7.80;5.85;;;13.50;99.90;;;;;;4987714;28;20037;-76
2024/03/03 10:16:01;;;;;;;9.60;6.15;;;13.70;99.90;;;;;;4987611;28;20037;-75
2024/03/03 10:18:28;;;;;;;7.00;5.60;;;13.90;99.90;;;;;;4989598;28;20032;-76
2024/03/03 10:20:57;;;;;;;8.02;6.22;;;14.30;99.90;;;;;;4990900;28;20586;-76
2024/03/03 10:23:24;;;;;;;8.85;5.63;;;14.80;99.90;;;;;;4982025;28;20404;-76
2024/03/03 10:25:55;;;;;;;8.07;6.20;;;15.00;99.90;;;;;;4991440;28;20037;-76
2024/03/03 10:28:21;;;;;;;8.40;5.95;;;15.20;99.90;;;;;;4956918;28;21989;-76
2024/03/03 10:30:48;;;;;;;9.55;6.05;;;15.20;99.90;;;;;;4970712;28;20084;-76
2024/03/03 10:33:15;;;;;;;8.52;5.88;;;15.20;99.90;;;;;;4986484;28;20029;-76
2024/03/03 10:35:41;;;;;;;10.43;6.60;;;15.40;99.90;;;;;;4972771;28;20519;-76
2024/03/03 10:38:11;;;;;;;6.32;5.13;;;15.80;99.90;;;;;;4982208;28;20061;-76
2024/03/03 10:40:37;;;;;;;7.43;5.07;;;16.20;99.90;;;;;;4981835;28;20753;-76
2024/03/03 10:43:04;;;;;;;10.02;5.50;;;16.70;99.90;;;;;;4974047;28;20730;-76
2024/03/03 10:45:30;;;;;;;8.05;5.18;;;17.10;99.90;;;;;;4988171;28;20055;-76
2024/03/03 10:47:57;;;;;;;6.15;4.88;;;17.60;99.90;;;;;;4971900;28;20033;-76
2024/03/03 10:50:24;;;;;;;7.35;6.43;;;18.10;99.90;;;;;;4986079;28;20045;-76
2024/03/03 10:52:52;;;;;;;10.90;5.45;;;18.50;99.90;;;;;;4968964;28;20032;-77
2024/03/03 10:55:19;;;;;;;7.97;5.15;;;18.80;99.90;;;;;;4961810;28;20116;-77
2024/03/03 10:57:46;;;;;;;6.75;4.80;;;19.00;99.90;;;;;;4977877;28;20041;-76
2024/03/03 11:00:22;;;;;;;5.75;4.28;;;19.10;99.90;;;;;;4974962;28;20056;-76
2024/03/03 11:02:52;;;;;;;6.35;4.38;;;19.00;99.90;;;;;;5002120;28;20037;-76
2024/03/03 11:05:22;;;;;;;5.53;4.13;;;19.00;99.90;;;;;;4987077;28;20115;-76
2024/03/03 11:07:49;;;;;;;5.65;4.28;;;19.00;99.90;;;;;;4987282;28;20037;-76
2024/03/03 11:10:17;;;;;;;7.50;4.88;;;19.30;99.90;;;;;;4988347;28;20037;-76
2024/03/03 11:12:48;;;;;;;7.68;4.85;;;19.80;99.90;;;;;;4997320;28;20025;-76
2024/03/03 11:15:19;;;;;;;6.03;4.03;;;20.20;99.90;;;;;;4980160;28;20030;-76
2024/03/03 11:17:56;;;;;;;6.40;3.88;;;20.60;99.90;;;;;;4988602;28;20041;-76
2024/03/03 11:20:26;;;;;;;4.93;2.97;;;20.60;99.90;;;;;;4990491;28;20034;-76
2024/03/03 11:23:25;;;;;;;4.78;3.65;;;20.50;99.90;;;;;;5005459;28;21014;-76
2024/03/03 11:26:15;;;;;;;5.57;3.20;;;20.20;99.90;;;;;;4991114;28;20566;-76
2024/03/03 11:28:46;;;;;;;6.65;3.58;;;19.80;99.90;;;;;;5011344;28;20029;-76
2024/03/03 11:31:13;;;;;;;4.80;3.03;;;19.60;99.90;;;;;;5007857;28;20052;-76
2024/03/03 11:33:40;;;;;;;4.68;2.80;;;19.40;99.90;;;;;;4988615;28;20793;-76
2024/03/03 11:36:07;;;;;;;4.32;2.38;;;19.20;99.90;;;;;;4987146;28;20033;-76
2024/03/03 11:38:44;;;;;;;3.33;2.28;;;18.90;99.90;;;;;;4988094;28;20384;-76
2024/03/03 11:41:10;;;;;;;6.05;3.63;;;18.60;99.90;;;;;;4986148;28;20037;-76
2024/03/03 11:43:41;;;;;;;6.32;3.10;;;18.40;99.90;;;;;;4992912;28;20060;-76
2024/03/03 11:46:08;;;;;;;4.32;2.30;;;18.00;99.90;;;;;;5011899;28;20038;-76
2024/03/03 11:48:36;;;;;;;3.95;2.55;;;17.80;99.90;;;;;;4973764;28;21745;-76
2024/03/03 11:51:30;;;;;;;5.25;2.50;;;17.80;99.90;;;;;;4969687;28;20669;-76
2024/03/03 11:54:06;;;;;;;5.35;2.55;;;17.70;99.90;;;;;;5005537;28;20061;-76
2024/03/03 11:56:56;;;;;;;5.22;3.47;;;17.40;99.90;;;;;;4991736;28;21295;-76
2024/03/03 11:59:30;;;;;;;5.10;3.03;;;17.30;99.90;;;;;;4995170;28;20033;-76
2024/03/03 12:01:59;;;;;;;4.00;2.35;;;17.20;99.90;;;;;;5001893;28;20116;-76
2024/03/03 12:04:27;;;;;;;4.22;2.88;;;17.00;99.90;;;;;;4999199;28;20034;-76
2024/03/03 12:06:53;;;;;;;4.35;2.47;;;17.00;99.90;;;;;;4989867;28;20044;-76
2024/03/03 12:09:21;;;;;;;3.83;2.10;;;16.90;99.90;;;;;;4989617;28;20026;-75
2024/03/03 12:11:49;;;;;;;5.18;2.78;;;17.00;99.90;;;;;;4992481;28;20049;-76
2024/03/03 12:14:16;;;;;;;6.85;4.05;;;17.20;99.90;;;;;;5005362;28;20037;-75
2024/03/03 12:16:43;;;;;;;7.35;4.25;;;17.40;99.90;;;;;;4999760;28;20029;-75
2024/03/03 12:19:10;;;;;;;6.55;3.65;;;17.70;99.90;;;;;;5002777;28;20484;-75
2024/03/03 12:21:37;;;;;;;6.75;3.13;;;18.30;99.90;;;;;;4993583;28;20041;-75
2024/03/03 12:24:08;;;;;;;5.72;4.10;;;19.10;99.90;;;;;;4991770;28;20068;-75
2024/03/03 12:26:38;;;;;;;7.45;4.30;;;20.10;99.90;;;;;;4974637;28;20484;-75
2024/03/03 12:29:05;;;;;;;7.50;4.63;;;21.20;99.90;;;;;;4990543;28;20060;-75
2024/03/03 12:31:32;;;;;;;6.45;4.57;;;22.10;99.90;;;;;;4975476;28;20868;-75
2024/03/03 12:33:58;;;;;;;5.18;4.07;;;22.50;98.90;;;;;;4996855;28;20037;-76
2024/03/03 12:36:26;;;;;;;4.50;3.58;;;22.80;98.60;;;;;;5017966;28;20048;-76
2024/03/03 12:38:52;;;;;;;4.95;3.38;;;23.20;98.30;;;;;;4996052;28;20048;-76
2024/03/03 12:41:19;;;;;;;5.20;3.33;;;23.70;97.50;;;;;;4957477;28;20034;-76
2024/03/03 12:43:47;;;;;;;5.88;4.30;;;24.00;96.60;;;;;;5016179;28;20021;-76
2024/03/03 12:46:15;;;;;;;4.55;3.60;;;24.20;94.70;;;;;;4990497;28;20040;-76
2024/03/03 12:48:44;;;;;;;4.32;2.67;;;23.90;94.10;;;;;;5005247;28;20434;-75
2024/03/03 12:51:13;;;;;;;5.60;3.30;;;23.80;94.10;;;;;;4971174;28;20049;-76